Аэропорт: Нальчик. Нальчик

ICAO: URMN

METAR:
2021-01-20 03:00:00
URMN 200300Z 00000MPS 9999 BKN030CB M05/M07 Q1017 R24/////// NOSIG RMK QFE726
METAR:
2021-01-20 02:00:00
TAF URMN 200200Z 2003/2012 24003MPS 5000 BR BKN011 TEMPO 2003/2009 0800 FZFG OVC002